ADDS METAR Data INFO
IDs: Format: Raw Decoded Include TAF

Data at: 1844 UTC 17 Oct 2017

KAWM 171753Z AUTO 00000KT 10SM CLR 19/06 A3029 RMK AO2 SLP256 T01940061 10200 20050 58021
KAWM 171653Z AUTO VRB03KT 10SM CLR 18/06 A3033 RMK AO2 SLP269 T01830061
KAWM 171553Z AUTO 12005KT 10SM CLR 17/06 A3034 RMK AO2 SLP274 T01720061
KAWM 171453Z AUTO 11007KT 10SM CLR 15/07 A3035 RMK AO2 SLP278 T01500072 51006
KAWM 171353Z AUTO 10005KT 10SM CLR 12/08 A3035 RMK AO2 SLP276 T01170078
KAWM 171253Z AUTO 00000KT 10SM CLR 07/06 A3035 RMK AO2 SLP277 T00670061 $
KAWM 171153Z AUTO 00000KT 10SM CLR 05/05 A3034 RMK AO2 SLP272 T00500050 10078 20050 53016 $
KAWM 171053Z AUTO 32003KT 10SM CLR 06/06 A3031 RMK AO2 SLP263 T00560056 $
KAWM 170953Z AUTO 00000KT 10SM CLR 06/06 A3029 RMK AO2 SLP257 T00610061 $
KAWM 170853Z AUTO 00000KT 10SM CLR 07/06 A3029 RMK AO2 SLP255 T00670061 58003 $
KAWM 170753Z AUTO 00000KT 10SM CLR 07/07 A3029 RMK AO2 SLP257 T00670067 $
KAWM 170653Z AUTO 00000KT 10SM CLR 07/07 A3030 RMK AO2 SLP259 T00670067 $
KAWM 170553Z AUTO 00000KT 10SM CLR 07/07 A3030 RMK AO2 SLP259 T00720067 10139 20072 401940072 50001 $
KAWM 170453Z AUTO 00000KT 10SM CLR 08/07 A3030 RMK AO2 SLP260 T00780072 $
KAWM 170353Z AUTO 02003KT 10SM CLR 09/06 A3030 RMK AO2 SLP259 T00890061 $
KAWM 170253Z AUTO 35003KT 10SM CLR 09/06 A3030 RMK AO2 SLP258 T00940056 51005 $
KAWM 170153Z AUTO 03003KT 10SM CLR 12/05 A3029 RMK AO2 SLP255 T01220050 $
KAWM 170053Z AUTO 02004KT 10SM CLR 13/05 A3029 RMK AO2 SLP258 T01280050 $
KAWM 162353Z AUTO 00000KT 9SM CLR 14/04 A3028 RMK AO2 SLP253 T01390044 10194 20139 53002 $
KAWM 162253Z AUTO 03007KT 10SM CLR 17/03 A3028 RMK AO2 SLP252 T01720033 $
KAWM 162153Z AUTO 03011KT 10SM CLR 19/02 A3027 RMK AO2 SLP250 T01890017 $
KAWM 162053Z AUTO 03012G16KT 10SM CLR 19/03 A3028 RMK AO2 SLP250 T01940033 56024 $
KAWM 161953Z AUTO 01011G19KT 10SM CLR 19/04 A3029 RMK AO2 SLP254 T01890039 $
KAWM 161753Z AUTO 03012G20KT 10SM 17/04 A3035 RMK AO2 SLP275 T01720039 10178 20083 $
KAWM 161653Z AUTO 05012G20KT 10SM CLR 17/05 A3037 RMK AO2 SLP282 T01670050
KAWM 161553Z AUTO 03013G20KT 10SM CLR 16/07 A3037 RMK AO2 SLP284 T01560067
KAWM 161453Z AUTO 03010KT 10SM CLR 13/08 A3038 RMK AO2 SLP285 T01330083 51014
KAWM 161353Z AUTO 01009KT 10SM CLR 11/09 A3037 RMK AO2 SLP282 T01110089
KAWM 161253Z AUTO 01006KT 10SM CLR 09/08 A3035 RMK AO2 SLP275 T00940078 $
KAWM 161153Z AUTO 01007KT 10SM CLR 09/08 A3034 RMK AO2 SLP272 70011 T00890078 10111 20089 53015 $
KAWM 161053Z AUTO 01007KT 10SM CLR 09/08 A3031 RMK AO2 SLP264 T00890083 $
KAWM 160953Z AUTO 01005KT 10SM CLR 09/08 A3030 RMK AO2 SLP260 T00940083 $
KAWM 160853Z AUTO 01008KT 10SM CLR 10/08 A3029 RMK AO2 SLP257 T01000083 51005 $
KAWM 160753Z AUTO 01006KT 10SM CLR 11/09 A3029 RMK AO2 SLP256 T01060089 $
KAWM 160653Z AUTO 36006KT 10SM CLR 11/09 A3029 RMK AO2 SLP255 T01060094 $